Terminal Aerodrome Forecast
Issued by NWS

Home | Current Version | Previous Version | Text Only | Print | Product List | Glossary On
Versions: 1 2 3 4 5 6 7 8 9 10 11 12
809
FTUS44 KTSA 271120
TAFRVS
TAF
KRVS 271120Z 2712/2812 00000KT P6SM SKC
     FM271300 14010KT P6SM OVC015
     FM271800 17011G18KT P6SM OVC025
     FM280200 17012KT 4SM BR SCT025 BKN250=

USA.gov is the U.S. government's official web portal to all federal, state and local government web resources and services.